< < Back
Terminal Aerodrome Forecast


Current Version              Previous Versions:   1  2  3  4  5  6  7  8  9  

Terminal Aerodrome Forecast

669
FTUS44 KOHX 261700
TAFCSV
TAF
KCSV 261739Z 2618/2718 24007KT P6SM SCT250
     FM270100 VRB03KT P6SM SCT250
      TEMPO 2710/2712 5SM BR
     FM271600 25010G20KT P6SM FEW030 BKN250=

Latest METAR

058
SAUS70 KWBC 261900 RRH
MTRCSV
METAR KCSV 261853Z AUTO 22004KT 10SM CLR 27/17 A3008 RMK AO2 SLP168
T02720167


USA.gov is the U.S. government's official web portal to all federal, state and local government web resources and services.